Time;durP1;ratioP1;P1;durP2;ratioP2;P2;SDS_P1;SDS_P2;PMS_P1;PMS_P2;Temp;Humidity;BMP_temperature;BMP_pressure;BME280_temperature;BME280_humidity;BME280_pressure;Samples;Min_cycle;Max_cycle;Signal;HPM_P1;HPM_P2
2022/12/17 13:07:28;;;;;;;7.25;4.45;;;;;;;16.12;62.92;96840.00;5080292;28;20077;-36
2022/12/17 13:09:56;;;;;;;7.97;4.38;;;;;;;16.09;63.43;96843.66;5079056;28;20024;-35
2022/12/17 13:12:45;;;;;;;8.50;5.28;;;;;;;16.00;63.86;96844.38;5079452;28;20027;-36
2022/12/17 13:15:48;;;;;;;12.00;6.50;;;;;;;16.05;63.62;96841.06;5079057;28;20070;-37
2022/12/17 13:18:33;;;;;;;9.47;5.90;;;;;;;16.10;63.24;96842.44;5024746;28;20160;-35
2022/12/17 13:21:14;;;;;;;11.18;6.45;;;;;;;15.93;64.15;96841.19;5025544;28;20277;-36
2022/12/17 13:23:40;;;;;;;11.30;5.70;;;;;;;16.06;63.76;96850.03;5024396;28;20037;-35
2022/12/17 13:26:16;;;;;;;13.45;5.78;;;;;;;16.12;63.40;96846.25;5024359;28;20183;-35
2022/12/17 13:28:48;;;;;;;9.10;5.32;;;;;;;16.09;63.39;96855.34;5024706;28;20060;-36
2022/12/17 13:31:25;;;;;;;10.48;4.85;;;;;;;16.05;63.37;96849.28;5023569;28;20594;-36
2022/12/17 13:34:05;;;;;;;8.02;4.30;;;;;;;16.07;62.79;96860.50;5024375;28;20998;-35
2022/12/17 13:37:00;;;;;;;7.38;4.50;;;;;;;16.08;62.85;96853.06;5022760;28;20035;-36
2022/12/17 13:39:44;;;;;;;5.80;3.78;;;;;;;16.14;62.29;96862.97;5024771;28;20106;-36
2022/12/17 13:42:35;;;;;;;5.72;3.60;;;;;;;15.99;62.08;96861.25;5025024;28;20044;-35
2022/12/17 13:45:02;;;;;;;5.57;3.13;;;;;;;15.92;61.71;96865.03;5022974;28;20789;-36
2022/12/17 13:47:30;;;;;;;4.28;2.90;;;;;;;16.03;61.82;96861.88;5024755;28;20646;-35
2022/12/17 13:49:58;;;;;;;7.30;2.90;;;;;;;15.96;61.89;96867.63;5024757;28;20045;-36
2022/12/17 13:52:26;;;;;;;6.85;3.30;;;;;;;16.07;61.89;96873.47;5055242;28;20092;-36
2022/12/17 13:54:52;;;;;;;6.45;2.78;;;;;;;16.01;61.73;96875.25;5077916;28;20154;-36
2022/12/17 13:57:23;;;;;;;6.55;3.40;;;;;;;16.02;61.83;96879.50;5078724;28;20031;-35
2022/12/17 13:59:54;;;;;;;7.40;2.90;;;;;;;15.99;61.92;96883.91;5084919;28;20484;-35
2022/12/17 14:02:27;;;;;;;5.57;2.60;;;;;;;15.94;61.62;96883.75;5113132;28;20043;-35
2022/12/17 14:04:54;;;;;;;4.68;2.22;;;;;;;15.87;61.52;96882.03;5113132;28;20055;-36
2022/12/17 14:07:21;;;;;;;6.45;2.33;;;;;;;15.88;61.67;96889.03;5112820;28;20395;-37
2022/12/17 14:09:48;;;;;;;4.53;2.17;;;;;;;16.03;61.99;96889.25;5113174;28;20096;-35
2022/12/17 14:12:21;;;;;;;3.80;1.80;;;;;;;16.01;61.54;96897.91;5112684;28;20031;-35
2022/12/17 14:14:58;;;;;;;5.28;2.22;;;;;;;15.98;61.12;96893.31;5111547;28;20024;-36
2022/12/17 14:17:34;;;;;;;6.78;2.28;;;;;;;15.99;61.47;96892.09;5113042;28;20038;-35
2022/12/17 14:20:10;;;;;;;5.00;1.92;;;;;;;16.08;61.97;96896.84;5112744;28;20026;-35
2022/12/17 14:22:39;;;;;;;4.93;2.20;;;;;;;15.94;62.02;96898.19;5111623;28;20019;-35
2022/12/17 14:25:14;;;;;;;6.57;2.38;;;;;;;15.95;61.90;96904.41;5112523;28;20112;-36
2022/12/17 14:27:40;;;;;;;4.47;2.10;;;;;;;16.02;61.20;96909.59;5112060;28;20025;-37
2022/12/17 14:30:39;;;;;;;4.15;1.88;;;;;;;15.91;61.41;96909.25;5088274;22;20062;-30
2022/12/17 14:33:34;;;;;;;3.70;1.65;;;;;;;15.95;61.07;96905.16;4980626;28;20062;-31
2022/12/17 14:36:06;;;;;;;3.85;1.75;;;;;;;15.90;61.72;96905.00;5002910;28;20029;-31
2022/12/17 14:38:33;;;;;;;8.95;4.00;;;;;;;15.88;61.25;96910.91;5012492;28;20021;-31
2022/12/17 14:42:24;;;;;;;8.35;3.80;;;;;;;15.71;61.64;96906.88;5012314;28;20381;-31
2022/12/17 14:43:57;;;;;;;7.32;3.08;;;;;;;15.80;61.89;96912.41;5011719;28;20065;-31
2022/12/17 14:46:22;;;;;;;7.60;3.40;;;;;;;15.97;61.59;96921.13;5012499;28;20113;-31
2022/12/17 14:49:00;;;;;;;8.05;4.60;;;;;;;15.78;61.95;96915.59;5012282;28;20103;-31
2022/12/17 14:51:35;;;;;;;7.18;4.05;;;;;;;16.01;61.96;96925.25;5012473;28;20026;-31
2022/12/17 14:54:24;;;;;;;8.13;4.45;;;;;;;15.84;62.17;96925.91;4999819;28;20501;-32
2022/12/17 14:56:58;;;;;;;9.23;4.97;;;;;;;15.99;61.73;96937.84;5011863;28;20045;-32
2022/12/17 14:59:30;;;;;;;8.80;5.00;;;;;;;15.88;62.11;96932.78;5014766;28;20022;-32
2022/12/17 15:01:57;;;;;;;8.20;4.97;;;;;;;15.91;62.18;96942.84;5012129;28;20030;-32
2022/12/17 15:04:22;;;;;;;8.93;5.10;;;;;;;15.93;62.32;96945.13;4994278;28;20425;-32
2022/12/17 15:06:52;;;;;;;11.23;5.38;;;;;;;16.05;62.02;96958.72;5011292;28;20087;-32
2022/12/17 15:09:17;;;;;;;10.00;5.60;;;;;;;16.00;62.39;96951.09;5012056;28;20581;-32
2022/12/17 15:11:43;;;;;;;8.15;4.70;;;;;;;16.01;62.60;96958.09;5012086;28;20033;-32
2022/12/17 15:14:08;;;;;;;8.02;4.88;;;;;;;15.97;62.74;96956.69;5011828;28;20385;-32
2022/12/17 15:16:34;;;;;;;7.65;4.55;;;;;;;15.85;63.44;96958.28;5011818;28;20033;-32
2022/12/17 15:19:00;;;;;;;8.18;4.30;;;;;;;15.94;62.83;96955.63;5011348;28;20026;-32
2022/12/17 15:21:25;;;;;;;8.20;4.53;;;;;;;16.03;62.79;96965.84;4993952;28;20053;-32
2022/12/17 15:23:51;;;;;;;6.85;4.50;;;;;;;15.95;62.90;96967.34;5011628;28;20026;-32
2022/12/17 15:26:18;;;;;;;7.13;4.22;;;;;;;15.99;62.79;96970.69;5011323;28;20381;-31
2022/12/17 15:28:44;;;;;;;8.00;4.00;;;;;;;15.89;63.31;96971.84;5011548;28;20025;-31
2022/12/17 15:31:12;;;;;;;7.70;4.20;;;;;;;15.84;63.28;96975.91;5011259;28;20065;-31
2022/12/17 15:33:38;;;;;;;9.85;4.70;;;;;;;15.81;63.09;96979.56;5011440;28;20084;-31
2022/12/17 15:36:04;;;;;;;6.97;4.20;;;;;;;15.76;63.37;96985.59;5010124;28;20026;-31
2022/12/17 15:38:29;;;;;;;7.70;4.15;;;;;;;15.78;63.48;96983.19;5011239;28;20025;-31
2022/12/17 15:40:58;;;;;;;7.32;4.28;;;;;;;15.78;63.29;96985.91;5011426;28;20378;-31
2022/12/17 15:43:23;;;;;;;7.70;3.60;;;;;;;15.87;63.14;96991.44;4995944;28;20436;-31
2022/12/17 15:45:50;;;;;;;7.32;4.55;;;;;;;15.85;63.30;96993.84;5011355;28;20026;-31
2022/12/17 15:48:18;;;;;;;6.07;3.85;;;;;;;15.86;63.07;96989.91;5011498;28;20144;-31
2022/12/17 15:50:44;;;;;;;5.28;3.50;;;;;;;15.84;63.31;96989.59;5011233;28;20052;-31
2022/12/17 15:53:46;;;;;;;7.03;3.50;;;;;;;15.91;62.86;96997.56;5011165;28;20474;-31
2022/12/17 15:56:24;;;;;;;5.25;3.33;;;;;;;16.00;62.63;96992.13;5000058;28;20021;-31
2022/12/17 15:58:49;;;;;;;5.68;3.15;;;;;;;15.99;62.79;96996.06;5011437;28;20103;-31
2022/12/17 16:01:16;;;;;;;11.65;5.30;;;;;;;16.01;62.74;96996.38;5011371;28;20109;-31
2022/12/17 16:03:42;;;;;;;9.43;4.90;;;;;;;15.96;63.19;97007.13;5011117;28;20486;-32
2022/12/17 16:06:07;;;;;;;12.00;5.75;;;;;;;16.06;63.16;97006.75;5011307;28;20026;-32
2022/12/17 16:08:33;;;;;;;14.10;5.43;;;;;;;16.05;63.10;97005.22;5011176;28;20050;-32
2022/12/17 16:10:59;;;;;;;12.90;6.03;;;;;;;16.04;63.25;97017.38;5011089;28;20034;-32
2022/12/17 16:13:24;;;;;;;11.52;5.85;;;;;;;16.10;63.04;97010.09;5011453;28;20062;-32
2022/12/17 16:15:57;;;;;;;11.75;5.97;;;;;;;16.11;63.04;97011.63;5011050;28;20072;-32
2022/12/17 16:18:23;;;;;;;9.13;5.78;;;;;;;16.06;63.06;97009.50;5010841;28;20076;-32
2022/12/17 16:20:49;;;;;;;10.18;6.13;;;;;;;16.12;62.92;97018.63;4993070;28;20041;-31
2022/12/17 16:23:15;;;;;;;11.73;6.18;;;;;;;16.16;63.12;97024.75;5010947;28;20125;-31
2022/12/17 16:25:41;;;;;;;12.80;6.43;;;;;;;16.13;63.03;97028.38;5010679;28;20434;-31
2022/12/17 16:28:07;;;;;;;10.60;5.75;;;;;;;16.12;63.12;97032.31;4995842;28;20088;-31
2022/12/17 16:30:32;;;;;;;11.85;6.43;;;;;;;16.06;63.33;97033.34;5008081;28;20046;-31
2022/12/17 16:32:58;;;;;;;13.20;6.43;;;;;;;16.10;63.30;97029.25;5010468;28;20105;-31
2022/12/17 16:35:24;;;;;;;10.75;6.65;;;;;;;16.00;63.73;97038.63;5010859;28;20026;-31
2022/12/17 16:37:52;;;;;;;11.00;6.72;;;;;;;16.06;63.46;97034.13;5011172;28;20033;-31
2022/12/17 16:40:18;;;;;;;9.15;5.68;;;;;;;16.07;63.15;97035.63;5011185;28;20040;-32
2022/12/17 16:42:43;;;;;;;11.43;6.28;;;;;;;16.07;63.33;97032.88;5011036;28;20029;-32
2022/12/17 16:45:09;;;;;;;9.38;6.40;;;;;;;16.09;63.32;97035.94;5012615;28;20061;-32
2022/12/17 16:47:34;;;;;;;10.88;5.97;;;;;;;16.06;63.27;97047.03;5014703;28;20030;-32
2022/12/17 16:50:00;;;;;;;10.63;6.43;;;;;;;16.11;63.25;97047.19;5014422;28;20022;-32
2022/12/17 16:52:26;;;;;;;9.90;5.85;;;;;;;16.13;63.24;97061.19;5014384;28;20037;-30
2022/12/17 16:54:51;;;;;;;11.40;5.97;;;;;;;16.05;63.41;97057.22;4996493;28;20450;-31
2022/12/17 16:57:17;;;;;;;9.85;5.55;;;;;;;16.14;63.36;97062.72;5016982;28;20021;-31
2022/12/17 16:59:42;;;;;;;9.30;5.90;;;;;;;16.10;63.19;97059.34;5014469;28;20381;-31
2022/12/17 17:02:13;;;;;;;9.45;5.32;;;;;;;16.01;63.61;97056.56;5014210;28;20029;-31
2022/12/17 17:04:39;;;;;;;9.05;5.55;;;;;;;15.99;63.05;97058.22;5014377;28;20022;-31
2022/12/17 17:07:04;;;;;;;10.10;5.50;;;;;;;16.07;63.04;97068.44;5013975;28;20446;-31
2022/12/17 17:09:30;;;;;;;8.40;4.72;;;;;;;16.07;63.33;97068.44;5014378;28;20049;-31
2022/12/17 17:11:57;;;;;;;9.52;5.90;;;;;;;16.07;62.97;97073.19;5016805;28;20108;-31
2022/12/17 17:14:24;;;;;;;10.35;6.47;;;;;;;16.12;62.82;97083.53;5014116;28;20489;-32
2022/12/17 17:16:50;;;;;;;9.23;6.68;;;;;;;15.99;63.58;97082.84;5014151;28;20026;-32
2022/12/17 17:19:17;;;;;;;11.13;7.45;;;;;;;16.06;62.97;97088.84;5016258;28;20057;-31
2022/12/17 17:21:49;;;;;;;11.02;7.65;;;;;;;16.05;63.32;97083.81;5013319;28;20021;-31
2022/12/17 17:24:16;;;;;;;11.47;8.13;;;;;;;16.11;62.91;97085.50;5013865;28;20022;-31
2022/12/17 17:26:42;;;;;;;11.18;8.48;;;;;;;16.05;63.20;97087.31;5013912;28;20025;-32
2022/12/17 17:29:08;;;;;;;14.18;9.85;;;;;;;15.99;62.90;97089.06;5013472;28;20084;-32
2022/12/17 17:31:35;;;;;;;14.88;11.00;;;;;;;16.05;62.89;97095.53;5013502;28;20132;-32
2022/12/17 17:34:06;;;;;;;17.23;12.40;;;;;;;16.08;62.84;97100.06;5013821;28;20026;-32
2022/12/17 17:36:32;;;;;;;16.20;12.05;;;;;;;15.89;63.41;97098.44;5011778;28;20026;-32
2022/12/17 17:38:59;;;;;;;14.85;10.13;;;;;;;15.97;63.24;97099.69;5013470;28;20041;-32
2022/12/17 17:41:27;;;;;;;13.20;10.10;;;;;;;16.08;62.62;97102.81;4995878;28;20038;-32
2022/12/17 17:43:58;;;;;;;13.30;9.82;;;;;;;15.93;63.06;97104.56;5013318;28;20034;-32
2022/12/17 17:46:24;;;;;;;14.75;10.38;;;;;;;15.91;63.10;97106.97;5013220;28;20030;-32
2022/12/17 17:48:58;;;;;;;14.38;10.20;;;;;;;15.88;63.22;97113.31;5015757;28;20030;-32
2022/12/17 17:51:28;;;;;;;14.32;10.18;;;;;;;15.94;63.00;97117.03;5013530;28;20034;-32
2022/12/17 17:53:54;;;;;;;13.82;9.23;;;;;;;15.93;63.11;97120.97;5013485;28;20033;-32
2022/12/17 17:56:23;;;;;;;12.52;9.55;;;;;;;15.92;63.33;97130.38;5013026;28;20034;-32
2022/12/17 17:58:52;;;;;;;11.63;8.35;;;;;;;16.05;62.65;97128.34;5012908;28;20032;-32
2022/12/17 18:01:21;;;;;;;11.32;8.70;;;;;;;16.04;62.52;97132.28;5012970;28;20561;-32
2022/12/17 18:03:47;;;;;;;13.43;7.68;;;;;;;15.99;62.85;97130.13;5012843;28;20029;-32
2022/12/17 18:06:13;;;;;;;9.55;7.28;;;;;;;15.99;62.53;97132.84;5013007;28;20030;-32
2022/12/17 18:08:41;;;;;;;9.95;7.50;;;;;;;15.89;63.34;97141.44;5012576;28;20058;-32
2022/12/17 18:11:09;;;;;;;8.93;6.78;;;;;;;15.90;62.93;97140.22;5015160;28;20032;-32
2022/12/17 18:16:36;;;;;;;10.65;7.10;;;;;;;15.89;63.02;97153.16;5012063;28;20041;-32
2022/12/17 18:19:05;;;;;;;10.88;7.25;;;;;;;15.86;63.21;97154.03;5012439;28;20075;-32
2022/12/17 18:21:31;;;;;;;9.52;6.20;;;;;;;15.86;63.06;97156.75;5012677;28;20030;-32
2022/12/17 18:23:59;;;;;;;7.68;6.30;;;;;;;15.83;63.17;97168.56;5012729;28;20037;-32
2022/12/17 18:26:27;;;;;;;8.38;6.40;;;;;;;15.92;62.95;97173.38;5012699;28;20458;-32
2022/12/17 18:28:53;;;;;;;10.23;6.13;;;;;;;15.93;62.86;97183.13;5012761;28;20034;-32
2022/12/17 18:31:24;;;;;;;7.30;5.35;;;;;;;15.90;63.08;97181.25;5012065;28;20058;-31
2022/12/17 18:33:55;;;;;;;9.68;6.30;;;;;;;15.95;62.53;97181.44;4994804;28;20477;-31
2022/12/17 18:36:30;;;;;;;7.32;5.43;;;;;;;15.91;63.14;97189.03;5010874;28;20038;-32
2022/12/17 18:38:57;;;;;;;7.93;5.85;;;;;;;15.87;62.95;97193.84;5012265;28;20088;-31
2022/12/17 18:44:09;;;;;;;7.90;5.82;;;;;;;15.92;62.78;97195.25;5012452;28;20127;-32
2022/12/17 18:46:35;;;;;;;7.95;6.40;;;;;;;15.90;63.15;97201.19;5012391;28;20140;-32
2022/12/17 18:49:03;;;;;;;9.73;5.78;;;;;;;15.85;63.24;97212.66;5012402;28;20114;-32
2022/12/17 18:51:28;;;;;;;7.63;5.68;;;;;;;15.81;63.49;97214.78;5013297;28;20076;-32
2022/12/17 18:53:59;;;;;;;8.10;6.05;;;;;;;15.85;63.35;97211.91;5012712;28;20065;-31
2022/12/17 18:56:25;;;;;;;8.80;5.82;;;;;;;15.89;63.11;97218.03;5011757;28;20038;-32
2022/12/17 18:58:55;;;;;;;8.57;5.88;;;;;;;15.87;63.17;97225.91;5012154;28;20080;-32
2022/12/17 19:01:26;;;;;;;8.95;5.75;;;;;;;16.01;62.53;97222.69;5012214;28;20026;-32
2022/12/17 19:03:53;;;;;;;9.15;5.95;;;;;;;15.85;63.00;97231.03;4994008;28;20037;-31
2022/12/17 19:06:19;;;;;;;9.52;6.50;;;;;;;15.88;63.01;97230.94;5011210;28;20096;-32
2022/12/17 19:08:45;;;;;;;8.82;5.95;;;;;;;15.96;62.77;97228.72;5010894;28;20029;-32
2022/12/17 19:11:12;;;;;;;8.20;6.15;;;;;;;15.87;63.18;97234.88;5011465;28;20055;-32
2022/12/17 19:13:37;;;;;;;8.35;5.32;;;;;;;15.94;62.67;97231.16;5011403;28;20501;-32
2022/12/17 19:16:05;;;;;;;9.88;5.90;;;;;;;15.94;62.78;97240.13;5011744;28;20033;-32
2022/12/17 19:18:31;;;;;;;8.23;5.85;;;;;;;15.97;62.60;97236.47;5011676;28;20104;-32
2022/12/17 19:20:58;;;;;;;8.65;5.68;;;;;;;15.83;63.34;97242.41;5011374;28;20161;-32
2022/12/17 19:23:23;;;;;;;6.78;5.90;;;;;;;15.99;62.58;97238.78;5013388;28;20029;-32
2022/12/17 19:25:49;;;;;;;7.85;5.72;;;;;;;16.03;62.53;97234.72;5010872;28;20026;-32
2022/12/17 19:28:15;;;;;;;8.00;5.85;;;;;;;15.95;62.66;97249.84;5011032;28;20029;-32
2022/12/17 19:30:41;;;;;;;8.77;5.80;;;;;;;15.95;62.53;97244.38;5011176;28;20079;-32
2022/12/17 19:33:07;;;;;;;8.45;5.88;;;;;;;15.95;62.81;97255.31;5010890;28;20026;-32
2022/12/17 19:35:34;;;;;;;6.95;5.60;;;;;;;15.90;62.83;97255.88;5010973;28;20081;-32
2022/12/17 19:38:00;;;;;;;7.65;5.63;;;;;;;15.91;62.71;97259.38;5010134;28;20029;-32
2022/12/17 19:40:26;;;;;;;8.73;5.75;;;;;;;16.01;62.58;97269.22;5011292;28;20496;-32
2022/12/17 19:42:54;;;;;;;7.32;4.68;;;;;;;16.03;62.39;97272.28;5013306;28;20030;-32
2022/12/17 19:45:20;;;;;;;6.53;4.78;;;;;;;15.89;63.19;97273.50;5011104;28;20029;-32
2022/12/17 19:47:46;;;;;;;5.70;4.65;;;;;;;16.00;62.57;97271.16;5008439;28;20545;-32
2022/12/17 19:50:12;;;;;;;6.88;5.18;;;;;;;15.95;62.73;97282.66;5011444;28;20044;-32
2022/12/17 19:52:37;;;;;;;6.55;5.28;;;;;;;15.97;62.74;97287.69;5011005;28;20024;-31
2022/12/17 19:55:03;;;;;;;9.57;5.38;;;;;;;15.90;62.90;97279.72;5013559;28;20064;-31
2022/12/17 19:57:29;;;;;;;9.40;5.95;;;;;;;15.97;62.80;97283.00;5010990;28;20156;-31
2022/12/17 19:59:54;;;;;;;9.75;5.50;;;;;;;15.98;62.63;97297.44;5011260;28;20030;-31
2022/12/17 20:02:20;;;;;;;7.35;5.60;;;;;;;15.83;63.48;97297.13;4993170;28;20045;-31
2022/12/17 20:04:45;;;;;;;8.13;5.38;;;;;;;15.84;63.38;97293.19;5011300;28;20034;-32
2022/12/17 20:07:11;;;;;;;11.63;6.60;;;;;;;15.96;62.82;97294.38;5010711;28;20485;-31
2022/12/17 20:09:36;;;;;;;10.55;5.60;;;;;;;15.92;63.18;97304.69;5011071;28;20358;-31
2022/12/17 20:12:02;;;;;;;7.28;5.15;;;;;;;15.81;63.65;97296.81;5011369;28;20030;-31
2022/12/17 20:14:28;;;;;;;9.18;5.50;;;;;;;15.96;63.03;97302.56;5010932;28;20422;-31
2022/12/17 20:16:56;;;;;;;7.55;5.57;;;;;;;16.06;62.69;97310.47;5010841;28;20018;-32
2022/12/17 20:19:29;;;;;;;8.75;5.70;;;;;;;16.01;62.92;97305.53;5011744;28;20080;-32
2022/12/17 20:21:56;;;;;;;8.27;5.28;;;;;;;15.96;63.21;97317.03;5015114;28;20026;-32
2022/12/17 20:24:22;;;;;;;8.63;6.00;;;;;;;15.89;63.71;97311.78;5014933;28;20053;-32
2022/12/17 20:26:49;;;;;;;8.15;5.80;;;;;;;15.96;63.14;97310.78;5014894;28;20084;-32
2022/12/17 20:29:16;;;;;;;9.15;6.05;;;;;;;15.95;63.26;97320.97;5014713;28;20382;-32
2022/12/17 20:31:41;;;;;;;9.82;5.93;;;;;;;16.03;62.95;97321.50;5027453;28;20460;-32
2022/12/17 20:34:08;;;;;;;9.20;6.03;;;;;;;16.01;63.24;97321.19;5015003;28;20112;-32
2022/12/17 20:36:34;;;;;;;7.72;5.80;;;;;;;15.90;63.46;97321.53;5011872;28;20038;-32
2022/12/17 20:38:59;;;;;;;10.57;6.10;;;;;;;15.94;63.49;97322.19;5014860;28;20029;-32
2022/12/17 20:41:27;;;;;;;8.82;5.70;;;;;;;15.92;63.45;97327.34;5014661;28;20179;-32
2022/12/17 20:43:53;;;;;;;9.27;5.80;;;;;;;15.86;63.70;97315.41;5014330;28;20026;-32
2022/12/17 20:46:20;;;;;;;8.52;5.72;;;;;;;15.99;63.38;97323.59;5017422;28;20034;-32
2022/12/17 20:48:46;;;;;;;6.00;4.65;;;;;;;15.86;63.90;97323.59;4996627;28;20544;-32
2022/12/17 20:51:18;;;;;;;10.73;5.43;;;;;;;15.92;63.62;97327.34;5014625;28;20029;-31
2022/12/17 20:53:45;;;;;;;11.75;5.68;;;;;;;15.95;63.51;97334.66;4997017;28;20033;-31
2022/12/17 20:56:15;;;;;;;11.18;5.75;;;;;;;15.91;63.65;97334.00;5014108;28;20083;-31
2022/12/17 20:58:41;;;;;;;8.98;5.68;;;;;;;15.94;63.60;97335.09;5014373;28;20080;-31
2022/12/17 21:01:10;;;;;;;9.82;5.43;;;;;;;15.90;63.80;97332.47;5013667;28;20490;-31
2022/12/17 21:03:36;;;;;;;8.20;5.78;;;;;;;15.94;63.62;97335.88;4996760;28;20034;-31
2022/12/17 21:06:13;;;;;;;8.32;5.22;;;;;;;15.90;63.99;97340.69;5014110;28;20018;-31
2022/12/17 21:08:41;;;;;;;8.75;5.18;;;;;;;16.00;63.56;97347.00;5014042;28;20030;-31
2022/12/17 21:11:07;;;;;;;8.27;5.05;;;;;;;15.95;63.65;97347.59;5014181;28;20097;-31
2022/12/17 21:13:34;;;;;;;8.95;5.45;;;;;;;16.01;63.48;97352.06;5014294;28;20034;-31
2022/12/17 21:16:05;;;;;;;8.48;5.00;;;;;;;16.03;63.36;97349.66;5013904;28;20022;-31
2022/12/17 21:18:32;;;;;;;8.07;4.80;;;;;;;15.97;63.43;97354.13;5014140;28;20478;-31
2022/12/17 21:21:05;;;;;;;8.73;5.22;;;;;;;15.88;63.92;97359.50;5013904;28;20057;-31
2022/12/17 21:23:31;;;;;;;;;;;;;;;15.81;64.19;97365.22;5014524;28;20017;-31
2022/12/17 21:25:58;;;;;;;8.18;5.78;;;;;;;15.89;63.92;97361.03;5013885;28;19910;-31
2022/12/17 21:28:24;;;;;;;9.48;5.18;;;;;;;15.95;63.79;97358.53;5013540;28;20029;-31
2022/12/17 21:30:50;;;;;;;6.80;5.20;;;;;;;15.98;63.45;97366.59;5013097;28;20053;-31
2022/12/17 21:33:15;;;;;;;7.55;4.57;;;;;;;15.92;63.64;97360.16;5013633;28;20477;-31
2022/12/17 21:35:41;;;;;;;8.40;4.72;;;;;;;15.89;63.86;97371.97;5013076;28;20030;-33
2022/12/17 21:38:06;;;;;;;8.70;5.10;;;;;;;15.92;63.90;97381.28;5011892;28;20022;-32
2022/12/17 21:40:34;;;;;;;6.32;4.47;;;;;;;15.89;64.13;97382.91;5013350;28;20084;-32
2022/12/17 21:43:02;;;;;;;6.43;4.45;;;;;;;15.83;64.17;97381.91;5013155;28;20017;-32
2022/12/17 21:45:40;;;;;;;8.20;5.20;;;;;;;15.91;63.67;97385.97;5013543;28;20022;-32
2022/12/17 21:48:09;;;;;;;8.10;5.10;;;;;;;15.99;63.50;97386.53;5013605;28;20042;-33
2022/12/17 21:50:39;;;;;;;8.48;4.80;;;;;;;15.91;64.01;97391.47;5013405;28;20236;-32
2022/12/17 21:53:04;;;;;;;6.78;4.35;;;;;;;15.95;63.60;97388.63;5011925;28;20105;-32
2022/12/17 21:55:30;;;;;;;7.65;4.50;;;;;;;16.03;63.27;97392.66;5012971;28;20117;-32
2022/12/17 21:57:55;;;;;;;9.55;4.28;;;;;;;16.01;63.29;97395.06;5013372;28;20032;-32
2022/12/17 22:00:21;;;;;;;8.00;4.28;;;;;;;16.00;63.41;97391.56;5013130;28;20032;-32
2022/12/17 22:02:46;;;;;;;6.55;3.85;;;;;;;15.95;63.66;97397.56;5013280;28;20466;-33
2022/12/17 22:05:12;;;;;;;6.38;4.30;;;;;;;15.98;63.59;97395.94;5012881;28;20041;-32
2022/12/17 22:07:37;;;;;;;7.35;4.65;;;;;;;15.98;63.57;97402.16;5012714;28;20080;-32
2022/12/17 22:10:03;;;;;;;6.63;4.40;;;;;;;16.05;63.21;97407.44;5013155;28;20036;-32
2022/12/17 22:15:12;;;;;;;7.03;3.67;;;;;;;16.09;62.93;97419.00;5012918;28;20036;-32
2022/12/17 22:17:38;;;;;;;5.97;3.70;;;;;;;16.00;63.44;97412.69;5012837;28;20126;-32
2022/12/17 22:20:04;;;;;;;6.93;4.15;;;;;;;16.05;63.10;97421.13;5012417;28;20092;-32
2022/12/17 22:22:30;;;;;;;6.55;4.22;;;;;;;15.91;63.74;97418.81;5012771;28;20025;-32
2022/12/17 22:24:55;;;;;;;8.27;4.15;;;;;;;16.02;63.38;97413.00;5012653;28;20432;-32
2022/12/17 22:27:22;;;;;;;8.23;3.78;;;;;;;15.83;64.04;97412.00;5012753;28;20046;-32
2022/12/17 22:35:15;;;;;;;6.20;4.20;;;;;;;15.91;63.79;97424.28;5012506;28;20064;-32
2022/12/17 22:37:40;;;;;;;6.18;3.80;;;;;;;15.98;63.44;97418.59;5011213;28;20030;-32
2022/12/17 22:40:06;;;;;;;5.97;4.07;;;;;;;15.95;63.43;97413.25;5012747;28;20053;-32
2022/12/17 22:45:16;;;;;;;7.95;3.75;;;;;;;15.98;63.43;97418.59;5001424;28;20025;-33
2022/12/17 22:47:41;;;;;;;6.90;3.53;;;;;;;16.02;63.37;97423.97;5012021;28;20026;-33
2022/12/17 22:50:07;;;;;;;5.63;3.70;;;;;;;16.02;63.38;97415.75;5012540;28;20040;-32
2022/12/17 22:52:33;;;;;;;5.85;3.55;;;;;;;16.03;63.32;97425.50;5015096;28;20104;-32
2022/12/17 22:54:58;;;;;;;6.38;3.83;;;;;;;16.09;63.08;97420.97;5004047;28;20118;-32
2022/12/17 22:57:23;;;;;;;6.15;4.15;;;;;;;15.95;63.43;97424.19;5007725;28;20121;-32
2022/12/17 22:59:49;;;;;;;6.15;4.00;;;;;;;15.95;63.35;97427.66;5012492;28;20033;-32
2022/12/17 23:02:15;;;;;;;5.78;4.07;;;;;;;15.96;63.39;97437.41;5012425;28;20026;-32
2022/12/17 23:04:41;;;;;;;6.70;3.92;;;;;;;15.99;63.11;97433.78;5012063;28;20022;-32
2022/12/17 23:07:06;;;;;;;5.68;4.00;;;;;;;15.97;63.21;97433.47;5011824;28;20025;-32
2022/12/17 23:09:32;;;;;;;7.80;4.15;;;;;;;15.93;63.41;97437.53;5012090;28;20087;-32
2022/12/17 23:12:49;;;;;;;6.03;3.40;;;;;;;15.94;63.33;97437.09;5011617;28;20026;-33
2022/12/17 23:14:43;;;;;;;8.45;3.92;;;;;;;16.01;63.09;97439.59;5011512;28;20037;-33
2022/12/17 23:17:08;;;;;;;5.82;3.60;;;;;;;15.97;63.03;97438.94;5011789;28;20084;-32
2022/12/17 23:19:37;;;;;;;7.40;3.38;;;;;;;15.99;63.04;97436.53;5011775;28;20117;-32
2022/12/17 23:22:02;;;;;;;5.82;3.22;;;;;;;15.99;63.21;97436.53;5011013;28;20518;-32
2022/12/17 23:24:28;;;;;;;6.90;3.47;;;;;;;16.05;63.00;97436.78;4994108;28;20118;-32
2022/12/17 23:26:54;;;;;;;5.78;3.50;;;;;;;16.02;62.76;97441.13;5010261;28;20512;-32
2022/12/17 23:29:19;;;;;;;8.05;3.40;;;;;;;15.99;63.00;97446.72;5011500;28;20061;-33
2022/12/17 23:31:44;;;;;;;5.32;3.22;;;;;;;15.96;62.77;97442.88;5011005;28;20053;-32
2022/12/17 23:34:10;;;;;;;4.68;3.25;;;;;;;15.96;63.11;97442.88;5011529;28;20034;-32
2022/12/17 23:36:36;;;;;;;4.82;3.13;;;;;;;15.94;63.14;97445.31;5009806;28;20375;-32
2022/12/17 23:39:01;;;;;;;4.07;2.78;;;;;;;15.96;62.95;97451.09;5011059;28;20030;-32
2022/12/17 23:41:29;;;;;;;5.45;3.22;;;;;;;16.02;62.89;97457.56;5011414;28;20072;-32
2022/12/17 23:43:55;;;;;;;6.63;2.95;;;;;;;15.93;63.06;97454.72;5010715;28;20497;-32
2022/12/17 23:46:22;;;;;;;5.15;3.55;;;;;;;15.99;62.79;97455.69;5010697;28;20109;-32
2022/12/17 23:48:48;;;;;;;3.67;2.80;;;;;;;15.98;63.00;97456.88;5011398;28;20025;-32
2022/12/17 23:51:16;;;;;;;4.32;2.80;;;;;;;15.91;63.05;97461.81;5011355;28;20613;-33
2022/12/17 23:53:41;;;;;;;5.18;2.65;;;;;;;15.94;62.87;97464.44;5011573;28;20065;-33
2022/12/17 23:56:08;;;;;;;4.88;2.65;;;;;;;15.97;62.75;97463.56;5011159;28;20053;-31
2022/12/17 23:58:35;;;;;;;6.18;2.67;;;;;;;16.01;62.59;97464.22;5011185;28;20489;-33
